Time;durP1;ratioP1;P1;durP2;ratioP2;P2;SDS_P1;SDS_P2;PMS_P1;PMS_P2;Temp;Humidity;BMP_temperature;BMP_pressure;BME280_temperature;BME280_humidity;BME280_pressure;Samples;Min_cycle;Max_cycle;Signal;HPM_P1;HPM_P2
2023/06/13 00:01:22;;;;;;;5.40;4.90;;;;;;;20.55;nan;98886.22;4996158;28;20357;-79
2023/06/13 00:03:49;;;;;;;6.20;5.70;;;;;;;20.41;nan;98883.47;4991050;28;20693;-79
2023/06/13 00:06:15;;;;;;;6.67;5.50;;;;;;;20.25;nan;98879.91;4990786;28;20468;-80
2023/06/13 00:08:42;;;;;;;6.40;4.63;;;;;;;20.13;nan;98875.16;4992431;28;20484;-80
2023/06/13 00:11:08;;;;;;;5.30;4.80;;;;;;;20.02;nan;98876.41;4990053;28;20450;-78
2023/06/13 00:13:34;;;;;;;6.20;5.57;;;;;;;19.92;nan;98881.13;4985927;28;20440;-80
2023/06/13 00:16:00;;;;;;;6.90;5.20;;;;;;;19.83;nan;98883.00;4988070;28;20323;-79
2023/06/13 00:18:31;;;;;;;7.37;5.17;;;;;;;19.72;nan;98870.91;4994943;28;20446;-79
2023/06/13 00:20:58;;;;;;;5.07;4.63;;;;;;;19.63;nan;98875.41;4990588;28;20447;-79
2023/06/13 00:23:25;;;;;;;5.33;4.80;;;;;;;19.56;nan;98873.63;4991491;28;20971;-79
2023/06/13 00:25:52;;;;;;;6.67;5.33;;;;;;;19.51;nan;98870.63;4993353;28;20475;-80
2023/06/13 00:28:17;;;;;;;6.00;5.07;;;;;;;19.45;nan;98872.97;4988423;28;20467;-79
2023/06/13 00:30:43;;;;;;;8.00;5.50;;;;;;;19.38;nan;98869.34;4968829;28;20439;-80
2023/06/13 00:33:11;;;;;;;7.20;5.47;;;;;;;19.31;nan;98865.72;4970629;28;20253;-80
2023/06/13 00:35:37;;;;;;;6.27;5.63;;;;;;;19.21;nan;98865.09;4988752;28;20441;-80
2023/06/13 00:38:07;;;;;;;6.03;5.43;;;;;;;19.12;nan;98868.75;4991459;28;20468;-80
2023/06/13 00:40:32;;;;;;;6.40;5.10;;;;;;;18.99;nan;98875.44;4973686;28;20752;-79
2023/06/13 00:42:57;;;;;;;9.57;5.50;;;;;;;18.97;nan;98868.63;4978087;28;20549;-80
2023/06/13 00:45:28;;;;;;;7.47;5.20;;;;;;;18.88;nan;98859.84;4990253;28;20245;-80
2023/06/13 00:47:58;;;;;;;6.70;6.00;;;;;;;18.81;nan;98855.34;4971126;28;20213;-80
2023/06/13 00:50:31;;;;;;;9.27;6.30;;;;;;;18.74;nan;98861.38;4974508;28;20743;-80
2023/06/13 00:53:02;;;;;;;7.90;5.17;;;;;;;18.66;nan;98855.16;4986299;28;20433;-80
2023/06/13 00:55:28;;;;;;;5.43;4.93;;;;;;;18.61;nan;98853.03;4989255;28;21044;-79
2023/06/13 00:57:55;;;;;;;6.13;5.00;;;;;;;18.52;nan;98857.53;4975384;28;20474;-79
2023/06/13 01:00:25;;;;;;;6.70;5.67;;;;;;;18.45;nan;98853.88;4988851;28;20503;-79
2023/06/13 01:02:57;;;;;;;6.20;5.70;;;;;;;18.40;nan;98853.53;4976649;28;21099;-79
2023/06/13 01:05:31;;;;;;;6.05;5.13;;;;;;;18.37;nan;98867.16;4972614;28;20449;-80
2023/06/13 01:08:01;;;;;;;7.23;5.53;;;;;;;18.34;nan;98859.50;4972329;28;20208;-78
2023/06/13 01:10:29;;;;;;;5.67;5.13;;;;;;;18.29;nan;98854.69;4992553;28;20465;-80
2023/06/13 01:13:10;;;;;;;6.40;5.80;;;;;;;18.22;nan;98861.66;4973524;28;20496;-79
2023/06/13 01:15:42;;;;;;;9.10;5.27;;;;;;;18.20;nan;98861.00;4988970;28;20541;-79
2023/06/13 01:18:10;;;;;;;7.83;5.73;;;;;;;18.14;nan;98866.94;4988638;28;20477;-81
2023/06/13 01:20:37;;;;;;;5.93;5.17;;;;;;;18.04;nan;98860.97;4976395;28;20478;-79
2023/06/13 01:23:06;;;;;;;5.83;5.20;;;;;;;17.97;nan;98859.97;4986870;28;20501;-80
2023/06/13 01:25:37;;;;;;;6.70;5.47;;;;;;;17.87;nan;98850.28;4987451;28;20479;-79
2023/06/13 01:28:03;;;;;;;6.23;5.17;;;;;;;17.81;nan;98850.13;4973554;28;20908;-80
2023/06/13 01:30:29;;;;;;;5.97;5.37;;;;;;;17.72;nan;98851.91;4975918;28;21027;-80
2023/06/13 01:32:55;;;;;;;7.07;6.37;;;;;;;17.71;nan;98844.91;4988074;28;20504;-80
2023/06/13 01:35:23;;;;;;;6.40;5.60;;;;;;;17.70;nan;98851.22;5027214;23;20513;-80
2023/06/13 01:37:48;;;;;;;6.60;5.90;;;;;;;17.64;nan;98854.53;4989681;28;20462;-79
2023/06/13 01:40:14;;;;;;;8.83;5.37;;;;;;;17.57;nan;98850.84;5001784;28;20472;-79
2023/06/13 01:42:40;;;;;;;6.00;5.00;;;;;;;17.51;nan;98854.16;5002974;28;20765;-79
2023/06/13 01:45:06;;;;;;;6.10;5.50;;;;;;;17.47;nan;98851.84;4994747;28;20623;-79
2023/06/13 01:47:50;;;;;;;7.73;5.70;;;;;;;17.43;nan;98845.16;4996041;28;20416;-79
2023/06/13 01:50:27;;;;;;;7.43;5.50;;;;;;;17.41;nan;98836.53;4986154;28;20511;-79
2023/06/13 01:53:02;;;;;;;6.00;4.63;;;;;;;17.37;nan;98837.84;4990547;28;20713;-79
2023/06/13 01:55:38;;;;;;;6.33;5.70;;;;;;;17.36;nan;98844.16;4989090;28;20478;-79
2023/06/13 01:58:10;;;;;;;7.10;4.73;;;;;;;17.34;nan;98843.47;4994294;28;20637;-79
2023/06/13 02:00:40;;;;;;;6.53;5.83;;;;;;;17.36;nan;98845.97;4986481;28;20497;-79
2023/06/13 02:03:06;;;;;;;6.23;5.60;;;;;;;17.43;nan;98841.69;4991133;28;20473;-79
2023/06/13 02:05:32;;;;;;;7.00;6.30;;;;;;;17.53;nan;98846.88;4994852;28;20433;-79
2023/06/13 02:07:57;;;;;;;5.70;5.20;;;;;;;17.59;nan;98847.03;4989919;28;20685;-79
2023/06/13 02:10:24;;;;;;;7.60;5.80;;;;;;;17.63;nan;98836.91;4988402;28;20288;-78
2023/06/13 02:12:49;;;;;;;8.43;5.50;;;;;;;17.65;nan;98845.56;4982240;28;20471;-79
2023/06/13 02:15:15;;;;;;;6.40;5.80;;;;;;;17.64;nan;98841.25;4991763;28;20274;-79
2023/06/13 02:17:41;;;;;;;6.07;5.47;;;;;;;17.65;nan;98832.28;4992232;28;20224;-79
2023/06/13 02:20:07;;;;;;;6.20;5.60;;;;;;;17.67;nan;98839.09;4985059;28;20637;-79
2023/06/13 02:22:32;;;;;;;7.67;6.20;;;;;;;17.70;nan;98837.94;4989495;28;20215;-79
2023/06/13 02:24:59;;;;;;;6.53;4.90;;;;;;;17.73;nan;98836.78;5002812;28;20280;-81
2023/06/13 02:27:25;;;;;;;6.00;4.53;;;;;;;17.69;nan;98852.22;4999354;28;20463;-79
2023/06/13 02:29:51;;;;;;;5.50;4.60;;;;;;;17.67;nan;98847.06;4999692;28;20339;-79
2023/06/13 02:32:18;;;;;;;5.83;5.17;;;;;;;17.64;nan;98843.91;5000233;28;20463;-79
2023/06/13 02:34:44;;;;;;;5.80;5.20;;;;;;;17.61;nan;98839.75;5012474;28;20877;-79
2023/06/13 02:37:09;;;;;;;5.47;4.93;;;;;;;17.58;nan;98841.88;5027137;28;20521;-78
2023/06/13 02:39:35;;;;;;;6.13;5.40;;;;;;;17.48;nan;98844.69;5027881;28;20219;-79
2023/06/13 02:42:00;;;;;;;5.70;5.20;;;;;;;17.39;nan;98842.97;5018085;28;20311;-79
2023/06/13 02:44:26;;;;;;;5.47;4.97;;;;;;;17.32;nan;98845.44;5020201;28;20221;-79
2023/06/13 02:46:53;;;;;;;7.93;5.80;;;;;;;17.30;nan;98849.25;5032787;28;20597;-79
2023/06/13 02:49:18;;;;;;;7.80;6.00;;;;;;;17.26;nan;98846.09;5031663;28;21035;-79
2023/06/13 02:51:44;;;;;;;5.30;4.80;;;;;;;17.21;nan;98853.69;5032094;28;20483;-79
2023/06/13 02:54:09;;;;;;;6.30;4.90;;;;;;;17.20;nan;98857.31;5031732;28;20218;-78
2023/06/13 02:56:36;;;;;;;7.37;5.97;;;;;;;17.20;nan;98862.63;5019604;28;20709;-79
2023/06/13 02:59:02;;;;;;;5.00;4.60;;;;;;;17.19;nan;98868.94;5022570;28;20369;-79
2023/06/13 03:01:29;;;;;;;6.80;5.20;;;;;;;17.14;nan;98868.56;5024164;28;20473;-79
2023/06/13 03:03:58;;;;;;;6.13;5.53;;;;;;;17.18;nan;98869.94;5015717;28;20481;-79
2023/06/13 03:06:24;;;;;;;8.13;5.80;;;;;;;17.23;nan;98862.34;5016730;28;20405;-80
2023/06/13 03:08:52;;;;;;;5.10;4.60;;;;;;;17.28;nan;98875.13;5033181;28;20225;-79
2023/06/13 03:11:18;;;;;;;6.00;4.87;;;;;;;17.27;nan;98873.47;5020083;28;20555;-79
2023/06/13 03:13:45;;;;;;;5.43;4.83;;;;;;;17.24;nan;98870.13;5023332;28;20474;-79
2023/06/13 03:16:11;;;;;;;5.20;4.70;;;;;;;17.21;nan;98875.75;5023568;28;20471;-79
2023/06/13 03:18:37;;;;;;;5.27;4.77;;;;;;;17.15;nan;98878.22;5015237;28;20476;-78
2023/06/13 03:21:03;;;;;;;5.20;4.70;;;;;;;17.02;nan;98882.13;5011920;28;20961;-79
2023/06/13 03:23:29;;;;;;;4.77;4.37;;;;;;;16.94;nan;98883.91;5016957;28;20555;-80
2023/06/13 03:25:55;;;;;;;5.90;4.73;;;;;;;16.85;nan;98880.38;5024769;28;20229;-79
2023/06/13 03:28:22;;;;;;;6.13;4.70;;;;;;;16.75;nan;98885.72;5020655;28;20225;-79
2023/06/13 03:30:51;;;;;;;5.97;5.47;;;;;;;16.70;nan;98892.47;5036891;28;21549;-80
2023/06/13 03:33:17;;;;;;;7.80;5.53;;;;;;;16.64;nan;98890.44;5017759;28;20449;-79
2023/06/13 03:35:44;;;;;;;5.80;5.20;;;;;;;16.55;nan;98887.75;5024947;28;20489;-79
2023/06/13 03:38:10;;;;;;;5.20;4.23;;;;;;;16.53;nan;98896.81;5036623;28;20492;-79
2023/06/13 03:40:36;;;;;;;5.63;4.20;;;;;;;16.50;nan;98890.00;5035864;28;20463;-79
2023/06/13 03:43:02;;;;;;;4.93;4.53;;;;;;;16.55;nan;98884.22;5036363;28;20461;-79
2023/06/13 03:45:27;;;;;;;6.87;4.00;;;;;;;16.64;nan;98890.44;5035465;28;20232;-79
2023/06/13 03:47:54;;;;;;;5.80;4.83;;;;;;;16.79;nan;98891.56;5037887;28;20217;-79
2023/06/13 03:50:20;;;;;;;9.73;5.10;;;;;;;16.92;nan;98891.16;5036075;28;20579;-78
2023/06/13 03:52:46;;;;;;;8.10;3.90;;;;;;;17.00;nan;98899.19;5039155;28;20484;-79
2023/06/13 03:55:11;;;;;;;5.03;4.30;;;;;;;16.97;nan;98892.38;5036936;28;20224;-78
2023/06/13 03:57:37;;;;;;;7.90;4.90;;;;;;;16.95;nan;98894.34;5041442;28;20280;-79
2023/06/13 04:00:05;;;;;;;7.70;4.77;;;;;;;16.97;nan;98899.50;5040887;28;20216;-79
2023/06/13 04:02:38;;;;;;;6.30;4.43;;;;;;;17.00;nan;98896.53;5041605;28;20207;-79
2023/06/13 04:05:05;;;;;;;4.65;4.00;;;;;;;17.02;nan;98907.81;5040756;28;20900;-79
2023/06/13 04:07:33;;;;;;;3.97;3.67;;;;;;;17.04;nan;98903.19;5039973;28;20212;-79
2023/06/13 04:10:01;;;;;;;5.83;4.27;;;;;;;17.13;nan;98901.44;5057400;28;20475;-79
2023/06/13 04:12:28;;;;;;;4.70;3.93;;;;;;;17.22;nan;98898.66;5039125;28;20532;-79
2023/06/13 04:14:54;;;;;;;6.53;4.37;;;;;;;17.34;nan;98901.88;5038290;28;20527;-79
2023/06/13 04:17:19;;;;;;;4.67;3.70;;;;;;;17.46;nan;98900.59;5034765;28;20509;-79
2023/06/13 04:19:45;;;;;;;4.73;4.20;;;;;;;17.55;nan;98900.63;5035734;28;20598;-79
2023/06/13 04:22:11;;;;;;;5.47;4.73;;;;;;;17.61;nan;98905.31;5034246;28;20213;-79
2023/06/13 04:24:36;;;;;;;6.60;4.07;;;;;;;17.66;nan;98905.66;5029390;28;20558;-79
2023/06/13 04:27:08;;;;;;;6.83;4.93;;;;;;;17.67;nan;98900.19;5025612;28;20463;-78
2023/06/13 04:29:34;;;;;;;5.90;4.07;;;;;;;17.73;nan;98906.69;5026850;28;20461;-78
2023/06/13 04:32:02;;;;;;;5.03;4.57;;;;;;;17.78;nan;98909.69;5025739;28;20464;-79
2023/06/13 04:34:27;;;;;;;5.43;4.50;;;;;;;17.86;nan;98909.75;5025083;28;20556;-78
2023/06/13 04:36:55;;;;;;;5.00;4.50;;;;;;;17.94;nan;98916.91;5024911;28;21027;-79
2023/06/13 04:39:23;;;;;;;8.30;3.63;;;;;;;17.98;nan;98920.91;5024471;28;20225;-78
2023/06/13 04:41:49;;;;;;;5.83;4.80;;;;;;;18.04;nan;98922.09;5017268;28;20472;-79
2023/06/13 04:44:14;;;;;;;6.30;5.13;;;;;;;18.15;nan;98927.13;5025291;28;20464;-79
2023/06/13 04:46:43;;;;;;;9.97;4.67;;;;;;;18.35;nan;98928.47;5024641;28;20586;-79
2023/06/13 04:49:09;;;;;;;6.57;3.67;;;;;;;18.71;nan;98936.16;5023603;28;20226;-79
2023/06/13 04:51:34;;;;;;;4.40;4.00;;;;;;;19.21;nan;98918.31;5022279;28;20476;-78
2023/06/13 04:54:00;;;;;;;6.30;5.07;;;;;;;19.78;nan;98915.50;5026481;28;20932;-78
2023/06/13 04:56:27;;;;;;;7.67;5.20;;;;;;;20.38;nan;98911.31;5011053;28;20226;-79
2023/06/13 04:58:53;;;;;;;8.40;4.73;;;;;;;20.93;nan;98910.25;5025601;28;20463;-79
2023/06/13 05:01:20;;;;;;;4.47;4.10;;;;;;;21.51;nan;98907.00;5022984;28;20830;-78
2023/06/13 05:03:47;;;;;;;6.97;3.97;;;;;;;22.01;nan;98906.19;5024943;28;20537;-79
2023/06/13 05:06:12;;;;;;;6.20;4.80;;;;;;;22.47;nan;98899.69;5022731;28;20444;-79
2023/06/13 05:08:38;;;;;;;5.70;4.20;;;;;;;22.94;nan;98898.22;5021168;28;20224;-79
2023/06/13 05:11:04;;;;;;;5.23;4.53;;;;;;;23.33;nan;98891.50;5023487;28;20216;-79
2023/06/13 05:13:29;;;;;;;12.63;4.50;;;;;;;23.58;nan;98891.84;5023697;28;20691;-79
2023/06/13 05:15:55;;;;;;;6.23;5.10;;;;;;;23.77;nan;98893.81;5023317;28;20958;-79
2023/06/13 05:18:29;;;;;;;12.60;4.13;;;;;;;23.95;nan;98890.59;5009907;28;20225;-79
2023/06/13 05:20:56;;;;;;;5.07;4.57;;;;;;;24.10;nan;98895.78;5022062;28;20202;-79
2023/06/13 05:23:22;;;;;;;4.70;4.17;;;;;;;24.37;nan;98891.31;5021363;28;21253;-78
2023/06/13 05:25:48;;;;;;;5.00;3.87;;;;;;;24.62;nan;98890.75;5022650;28;20490;-79
2023/06/13 05:28:13;;;;;;;4.83;4.20;;;;;;;25.00;nan;98896.31;5022623;28;20636;-79
2023/06/13 05:30:39;;;;;;;7.27;4.00;;;;;;;25.39;nan;98890.06;5008738;28;20838;-79
2023/06/13 05:33:05;;;;;;;5.40;4.10;;;;;;;25.78;nan;98895.50;5020535;28;20214;-79
2023/06/13 05:35:30;;;;;;;6.03;4.07;;;;;;;26.23;nan;98896.34;5020632;28;20429;-79
2023/06/13 05:37:56;;;;;;;4.57;4.17;;;;;;;26.64;nan;98903.13;5015678;28;20221;-79
2023/06/13 05:40:21;;;;;;;7.00;4.63;;;;;;;26.89;nan;98896.94;5022155;28;20207;-80
2023/06/13 05:42:47;;;;;;;5.20;4.33;;;;;;;27.11;nan;98887.41;5013156;28;20229;-79
2023/06/13 05:45:12;;;;;;;4.40;4.00;;;;;;;27.37;nan;98877.41;5022914;28;20422;-79
2023/06/13 05:47:37;;;;;;;4.97;4.50;;;;;;;27.64;nan;98879.81;5019915;28;20210;-79
2023/06/13 05:50:03;;;;;;;4.83;4.23;;;;;;;27.92;nan;98884.66;5021095;28;20294;-77
2023/06/13 05:52:30;;;;;;;5.13;4.73;;;;;;;28.15;nan;98884.75;5023150;28;20214;-77
2023/06/13 05:54:55;;;;;;;6.20;4.60;;;;;;;28.37;nan;98879.66;5021324;28;21030;-77
2023/06/13 05:57:20;;;;;;;4.67;4.20;;;;;;;28.58;nan;98880.22;5021947;28;20490;-77
2023/06/13 05:59:46;;;;;;;5.47;3.90;;;;;;;28.74;nan;98876.84;5023337;28;20295;-78
2023/06/13 06:02:23;;;;;;;4.47;4.07;;;;;;;28.94;nan;98870.25;5014618;28;20284;-77
2023/06/13 06:04:50;;;;;;;8.10;4.27;;;;;;;28.82;nan;98868.38;5019714;28;20645;-77
2023/06/13 06:07:15;;;;;;;4.90;3.80;;;;;;;28.92;nan;98872.34;5018100;28;20780;-77
2023/06/13 06:09:41;;;;;;;5.67;3.93;;;;;;;29.11;nan;98863.09;5017728;28;21030;-78
2023/06/13 06:12:07;;;;;;;6.30;4.13;;;;;;;29.36;nan;98856.63;5019281;28;20224;-77
2023/06/13 06:14:32;;;;;;;4.10;3.70;;;;;;;29.63;nan;98859.63;5017621;28;20221;-77
2023/06/13 06:16:57;;;;;;;4.20;3.73;;;;;;;29.98;nan;98854.09;5017640;28;20490;-78
2023/06/13 06:19:23;;;;;;;4.73;3.50;;;;;;;30.29;nan;98858.19;5019256;28;20247;-76
2023/06/13 06:21:48;;;;;;;4.10;3.70;;;;;;;30.43;nan;98861.41;5025317;28;20485;-78
2023/06/13 06:24:13;;;;;;;4.43;4.03;;;;;;;30.47;nan;98851.72;5029236;28;20291;-79
2023/06/13 06:26:39;;;;;;;4.10;3.43;;;;;;;30.67;nan;98855.84;5029947;28;20210;-78
2023/06/13 06:29:04;;;;;;;5.80;4.47;;;;;;;30.64;nan;98846.31;5030964;28;20210;-78
2023/06/13 06:31:29;;;;;;;4.73;3.63;;;;;;;30.60;nan;98848.69;5030930;28;20202;-78
2023/06/13 06:33:55;;;;;;;4.40;4.00;;;;;;;30.58;nan;98850.81;5027078;28;20460;-78
2023/06/13 06:36:22;;;;;;;4.13;3.72;;;;;;;30.66;nan;98844.19;5009883;28;20530;-78
2023/06/13 06:38:48;;;;;;;3.50;3.17;;;;;;;30.82;nan;98839.84;5024274;28;20209;-78
2023/06/13 06:41:14;;;;;;;3.23;2.93;;;;;;;31.16;nan;98828.91;5022644;28;20468;-78
2023/06/13 06:43:39;;;;;;;3.60;3.30;;;;;;;31.47;nan;98822.84;5026178;28;20660;-78
2023/06/13 06:46:08;;;;;;;3.97;3.57;;;;;;;31.54;nan;98822.63;5015408;28;20209;-77
2023/06/13 06:48:33;;;;;;;2.90;2.67;;;;;;;31.48;nan;98819.03;5023666;28;20553;-78
2023/06/13 06:50:59;;;;;;;3.87;3.00;;;;;;;31.31;nan;98824.50;5026424;28;20461;-78
2023/06/13 06:53:24;;;;;;;3.53;3.13;;;;;;;31.21;nan;98818.13;5022614;28;20202;-78
2023/06/13 06:55:50;;;;;;;3.73;2.50;;;;;;;31.20;nan;98827.34;5022762;28;20291;-78
2023/06/13 06:58:17;;;;;;;2.87;2.67;;;;;;;30.57;nan;98824.81;5096195;22;20795;-91
2023/06/13 07:00:54;;;;;;;5.13;3.00;;;;;;;29.68;nan;98833.50;5016177;28;20210;-89
2023/06/13 07:03:35;;;;;;;3.80;2.80;;;;;;;29.11;nan;98830.63;5022272;28;21576;-88
2023/06/13 07:06:15;;;;;;;4.50;3.00;;;;;;;28.96;nan;98830.28;5005590;28;21304;-88
2023/06/13 07:08:55;;;;;;;3.20;2.90;;;;;;;28.78;nan;98840.16;5002802;28;20935;-88
2023/06/13 07:11:53;;;;;;;;;;;;;;;;;;;;;
2023/06/13 07:14:41;;;;;;;5.10;3.00;;;;;;;29.51;nan;98824.44;5005486;28;21489;-90
2023/06/13 07:17:09;;;;;;;3.40;2.90;;;;;;;29.85;nan;98820.00;5008418;28;20477;-92
2023/06/13 07:19:55;;;;;;;;;;;;;;;;;;;;;
2023/06/13 07:22:31;;;;;;;;;;;;;;;;;;;;;
2023/06/13 07:25:08;;;;;;;4.40;3.40;;;;;;;29.88;nan;98824.13;5009206;28;20493;-89
2023/06/13 07:27:49;;;;;;;5.07;3.50;;;;;;;29.99;nan;98815.13;5007817;28;21095;-89
2023/06/13 07:30:26;;;;;;;3.03;2.80;;;;;;;29.81;nan;98818.84;5004807;28;21120;-89
2023/06/13 07:33:25;;;;;;;3.80;3.00;;;;;;;29.74;nan;98819.00;4980893;28;20448;-89
2023/06/13 07:36:01;;;;;;;9.10;2.90;;;;;;;29.99;nan;98815.94;5002880;28;20498;-92
2023/06/13 07:38:49;;;;;;;;;;;;;;;;;;;;;
2023/06/13 07:41:36;;;;;;;;;;;;;;;;;;;;;
2023/06/13 07:44:09;;;;;;;3.47;2.63;;;;;;;30.86;nan;98806.53;5005851;28;20474;-90
2023/06/13 07:46:47;;;;;;;4.87;2.90;;;;;;;30.98;nan;98803.75;5000673;28;20988;-89
2023/06/13 07:49:21;;;;;;;5.13;3.00;;;;;;;31.19;nan;98807.56;5001981;28;20871;-88
2023/06/13 07:51:57;;;;;;;3.70;2.90;;;;;;;31.38;nan;98799.94;4999007;28;20479;-87
2023/06/13 07:54:28;;;;;;;3.90;3.50;;;;;;;31.71;nan;98798.13;5002103;28;20475;-90
2023/06/13 07:57:01;;;;;;;3.50;3.20;;;;;;;31.81;nan;98797.41;4998575;28;20216;-89
2023/06/13 07:59:37;;;;;;;4.20;3.30;;;;;;;31.57;nan;98791.44;4998155;28;20558;-90
2023/06/13 08:02:13;;;;;;;;;;;;;;;;;;;;;
2023/06/13 08:05:10;;;;;;;;;;;;;;;;;;;;;
2023/06/13 08:07:54;;;;;;;3.40;3.10;;;;;;;30.71;nan;98781.91;5002907;28;20454;-90
2023/06/13 08:10:32;;;;;;;;;;;;;;;;;;;;;
2023/06/13 08:13:26;;;;;;;4.10;3.70;;;;;;;30.08;nan;98778.44;4999969;28;20463;-88
2023/06/13 08:16:15;;;;;;;4.30;2.70;;;;;;;29.64;nan;98778.19;5000339;28;20531;-90
2023/06/13 08:18:43;;;;;;;5.20;3.40;;;;;;;29.36;nan;98775.47;4999555;28;20553;-89
2023/06/13 08:21:30;;;;;;;;;;;;;;;;;;;;;
2023/06/13 08:24:18;;;;;;;;;;;;;;;;;;;;;
2023/06/13 08:26:49;;;;;;;3.63;2.73;;;;;;;29.07;nan;98778.09;4980902;28;20437;-89
2023/06/13 08:29:30;;;;;;;3.60;3.00;;;;;;;29.22;nan;98769.47;5000536;28;20776;-90
2023/06/13 08:32:17;;;;;;;4.17;3.77;;;;;;;29.30;nan;98777.22;5003402;28;20471;-89
2023/06/13 08:34:47;;;;;;;3.63;2.97;;;;;;;29.36;nan;98784.41;4994584;28;20457;-91
2023/06/13 08:37:26;;;;;;;3.30;2.90;;;;;;;29.29;nan;98781.81;4998874;28;20220;-88
2023/06/13 08:40:08;;;;;;;;;;;;;;;;;;;;;
2023/06/13 08:42:57;;;;;;;;;;;;;;;;;;;;;
2023/06/13 08:46:00;;;;;;;4.20;2.57;;;;;;;29.17;nan;98767.50;4996446;28;20471;-90
2023/06/13 08:48:46;;;;;;;3.63;3.30;;;;;;;29.30;nan;98772.66;4997981;28;20461;-89
2023/06/13 08:51:45;;;;;;;;;;;;;;;;;;;;;
2023/06/13 08:54:26;;;;;;;3.67;3.17;;;;;;;29.59;nan;98769.94;4982012;28;21005;-89
2023/06/13 08:57:22;;;;;;;;;;;;;;;;;;;;;
2023/06/13 09:00:01;;;;;;;3.63;3.27;;;;;;;29.59;nan;98774.53;5000146;28;20466;-91
2023/06/13 09:02:46;;;;;;;;;;;;;;;;;;;;;
2023/06/13 09:05:19;;;;;;;4.27;3.27;;;;;;;29.80;nan;98770.38;4998349;28;20828;-90
2023/06/13 09:07:49;;;;;;;4.17;3.10;;;;;;;29.71;nan;98772.66;4979354;28;20462;-90
2023/06/13 09:10:27;;;;;;;;;;;;;;;;;;;;;
2023/06/13 09:12:56;;;;;;;3.37;2.70;;;;;;;29.37;nan;98771.69;4995080;28;20540;-90
2023/06/13 09:15:32;;;;;;;3.90;3.13;;;;;;;29.42;nan;98769.91;4998398;28;20456;-90
2023/06/13 09:18:23;;;;;;;5.17;2.63;;;;;;;29.55;nan;98771.50;4998128;28;20471;-90
2023/06/13 09:20:58;;;;;;;5.73;3.30;;;;;;;29.81;nan;98769.28;4998454;28;20455;-89
2023/06/13 09:23:27;;;;;;;4.03;2.80;;;;;;;29.91;nan;98758.66;4999816;28;20464;-89
2023/06/13 09:26:11;;;;;;;4.10;3.60;;;;;;;29.68;nan;98759.59;4997473;28;20544;-90
2023/06/13 09:28:45;;;;;;;8.80;3.20;;;;;;;29.13;nan;98765.50;5001557;28;20560;-90
2023/06/13 09:31:18;;;;;;;4.57;2.90;;;;;;;29.17;nan;98764.81;5001243;28;20458;-89
2023/06/13 09:33:51;;;;;;;3.13;2.83;;;;;;;29.39;nan;98756.84;4999187;28;20446;-89
2023/06/13 09:36:31;;;;;;;5.80;3.50;;;;;;;29.55;nan;98758.78;4997733;28;20556;-90
2023/06/13 09:38:59;;;;;;;3.63;2.50;;;;;;;29.74;nan;98762.16;5001583;28;20481;-89
2023/06/13 09:41:31;;;;;;;5.50;3.67;;;;;;;29.74;nan;98759.44;4998494;28;20480;-89
2023/06/13 09:44:08;;;;;;;3.87;3.00;;;;;;;29.77;nan;98753.53;4978736;28;21061;-89
2023/06/13 09:46:38;;;;;;;3.43;3.13;;;;;;;29.88;nan;98753.72;4979268;28;21747;-90
2023/06/13 09:49:06;;;;;;;3.50;3.20;;;;;;;29.99;nan;98752.81;4997361;28;20462;-90
2023/06/13 09:51:37;;;;;;;3.37;3.00;;;;;;;30.13;nan;98758.75;4998632;28;20658;-90
2023/06/13 09:54:07;;;;;;;5.30;3.73;;;;;;;30.13;nan;98753.31;5005238;28;20461;-88
2023/06/13 11:07:25;;;;;;;4.67;3.57;;;;;;;30.90;17.06;98697.59;5023188;28;20318;-83
2023/06/13 11:10:04;;;;;;;6.40;3.33;;;;;;;30.98;17.22;98695.25;5012952;28;20671;-78
2023/06/13 11:12:29;;;;;;;3.13;2.83;;;;;;;31.00;16.91;98687.69;5002854;28;20541;-77
2023/06/13 11:15:03;;;;;;;4.07;2.93;;;;;;;30.90;16.71;98692.16;5007971;28;20473;-78
2023/06/13 11:17:28;;;;;;;4.90;3.10;;;;;;;30.85;16.67;98690.22;5005670;28;20194;-77
2023/06/13 11:19:56;;;;;;;3.10;2.80;;;;;;;30.55;17.11;98680.56;5011176;28;21202;-77
2023/06/13 11:22:22;;;;;;;4.67;3.60;;;;;;;30.36;17.39;98676.53;5002235;28;20200;-78
2023/06/13 11:24:48;;;;;;;3.40;3.07;;;;;;;30.38;17.07;98674.34;5003235;28;21222;-78
2023/06/13 11:27:16;;;;;;;3.80;3.43;;;;;;;30.45;17.05;98675.00;5008769;28;20457;-79
2023/06/13 11:29:45;;;;;;;3.13;2.80;;;;;;;30.41;16.42;98674.69;5008656;28;20469;-78
2023/06/13 11:32:12;;;;;;;4.83;2.93;;;;;;;30.44;16.45;98670.66;4986201;28;20460;-79
2023/06/13 11:34:47;;;;;;;3.80;3.30;;;;;;;30.40;16.91;98672.22;5003260;28;20427;-78
2023/06/13 11:37:23;;;;;;;5.83;3.30;;;;;;;30.37;16.59;98673.53;5004770;28;22054;-76
2023/06/13 11:39:55;;;;;;;3.80;2.67;;;;;;;30.40;16.59;98669.50;5006485;28;20483;-79
2023/06/13 11:42:21;;;;;;;3.73;3.33;;;;;;;30.25;16.24;98658.47;5001015;28;20463;-79
2023/06/13 11:44:47;;;;;;;3.57;3.27;;;;;;;30.29;16.56;98654.19;5003458;28;20454;-79
2023/06/13 11:47:12;;;;;;;3.97;3.67;;;;;;;30.33;16.59;98649.94;5008322;28;20461;-79
2023/06/13 11:49:38;;;;;;;6.47;3.23;;;;;;;30.35;16.61;98654.03;5002134;28;20213;-78
2023/06/13 11:52:14;;;;;;;4.03;3.33;;;;;;;30.41;15.87;98652.22;5009248;28;20219;-78
2023/06/13 11:54:43;;;;;;;6.37;3.33;;;;;;;30.44;15.99;98646.28;5005781;28;20705;-76
2023/06/13 11:57:09;;;;;;;5.67;3.53;;;;;;;30.44;16.03;98651.69;5003294;28;20494;-78
2023/06/13 11:59:35;;;;;;;3.60;2.93;;;;;;;30.46;16.17;98651.44;5004228;28;20457;-78
2023/06/13 12:02:00;;;;;;;5.20;2.93;;;;;;;30.56;16.51;98655.09;5002999;28;20928;-78
2023/06/13 12:04:26;;;;;;;2.87;2.63;;;;;;;30.67;16.17;98644.41;4999260;28;20222;-76
2023/06/13 12:06:55;;;;;;;4.20;3.70;;;;;;;30.81;16.08;98651.09;4997738;28;20239;-79
2023/06/13 12:09:20;;;;;;;4.87;3.07;;;;;;;30.75;15.52;98652.09;4991996;28;20508;-77
2023/06/13 12:11:46;;;;;;;4.00;3.53;;;;;;;30.34;16.30;98646.13;4989207;28;20537;-77
2023/06/13 12:14:13;;;;;;;3.73;3.33;;;;;;;30.41;16.31;98647.59;4985424;28;20201;-76
2023/06/13 12:16:39;;;;;;;5.07;4.00;;;;;;;30.20;16.04;98649.16;4997502;28;20206;-79
2023/06/13 12:19:07;;;;;;;4.70;3.20;;;;;;;30.36;16.32;98646.72;4993876;28;20447;-77
2023/06/13 12:21:38;;;;;;;4.00;3.60;;;;;;;30.49;15.82;98637.38;4988317;28;20463;-76
2023/06/13 12:24:08;;;;;;;8.23;3.57;;;;;;;30.66;16.09;98638.16;4985735;28;20460;-77
2023/06/13 12:26:40;;;;;;;3.63;2.63;;;;;;;30.57;15.74;98632.38;4991506;28;20478;-77
2023/06/13 12:29:07;;;;;;;4.70;3.40;;;;;;;30.54;15.95;98630.16;4985772;28;20987;-77
2023/06/13 12:31:36;;;;;;;3.80;2.97;;;;;;;30.53;15.73;98638.53;4999856;28;20460;-77
2023/06/13 12:34:09;;;;;;;4.80;3.07;;;;;;;30.27;15.45;98629.22;4987110;28;21273;-77
2023/06/13 12:36:45;;;;;;;5.10;3.93;;;;;;;30.29;15.44;98627.09;4986624;28;20475;-77
2023/06/13 12:39:14;;;;;;;4.03;3.40;;;;;;;30.47;15.20;98621.38;4983691;28;21125;-77
2023/06/13 12:41:47;;;;;;;3.83;3.40;;;;;;;30.38;15.46;98606.63;4993736;28;20476;-77
2023/06/13 12:44:12;;;;;;;4.10;3.10;;;;;;;30.47;15.50;98621.38;4986633;28;20463;-77
2023/06/13 12:46:38;;;;;;;3.70;3.30;;;;;;;30.52;15.48;98607.91;4984293;28;20491;-77
2023/06/13 12:49:11;;;;;;;3.00;2.80;;;;;;;30.58;16.19;98620.44;4988312;28;20203;-77
2023/06/13 12:51:44;;;;;;;4.13;3.43;;;;;;;30.55;15.79;98615.53;4986540;28;20227;-77
2023/06/13 12:54:18;;;;;;;4.60;3.50;;;;;;;30.12;16.56;98603.56;4989411;28;20475;-79
2023/06/13 12:57:02;;;;;;;4.23;3.00;;;;;;;30.12;16.43;98600.84;4985509;28;20520;-77
2023/06/13 12:59:42;;;;;;;6.90;3.50;;;;;;;30.11;16.00;98612.75;4982466;28;20548;-77
2023/06/13 13:02:09;;;;;;;5.27;3.07;;;;;;;30.07;15.71;98602.66;4987448;28;20468;-77
2023/06/13 13:04:35;;;;;;;4.00;3.60;;;;;;;30.13;15.77;98594.34;4989798;28;20863;-77
2023/06/13 13:07:03;;;;;;;3.47;3.17;;;;;;;30.29;15.77;98579.16;4988190;28;20475;-77
2023/06/13 13:09:30;;;;;;;7.07;3.20;;;;;;;30.41;15.53;98590.69;4992577;28;21227;-77
2023/06/13 13:11:56;;;;;;;4.47;2.70;;;;;;;30.58;15.26;98590.63;4993449;28;20479;-77
2023/06/13 13:14:25;;;;;;;3.70;2.53;;;;;;;30.68;15.36;98586.38;4976766;28;20458;-77
2023/06/13 13:16:51;;;;;;;6.03;3.50;;;;;;;30.77;15.38;98571.31;4990049;28;20227;-77
2023/06/13 13:19:18;;;;;;;3.50;2.77;;;;;;;30.86;15.43;98575.25;4983271;28;20814;-77
2023/06/13 13:21:44;;;;;;;4.13;2.90;;;;;;;30.71;15.79;98580.50;4982893;28;20450;-77
2023/06/13 13:24:10;;;;;;;5.17;3.50;;;;;;;30.80;15.47;98582.50;4982471;28;20513;-77
2023/06/13 13:26:35;;;;;;;6.10;3.40;;;;;;;30.68;14.38;98575.53;4990327;28;20473;-77
2023/06/13 13:29:01;;;;;;;6.60;3.20;;;;;;;30.68;14.96;98575.53;4982059;28;20292;-77
2023/06/13 13:31:26;;;;;;;3.13;2.83;;;;;;;30.84;14.84;98574.69;4992963;28;20297;-77